sensor_id;sensor_type;location;lat;lon;timestamp;pressure;altitude;pressure_sealevel;temperature;humidity
61757;BME280;57225;61.460;24.060;2023-01-13T00:01:40;98152.38;;;1.46;100.00
61757;BME280;57225;61.460;24.060;2023-01-13T00:04:25;98136.28;;;1.41;100.00
61757;BME280;57225;61.460;24.060;2023-01-13T00:07:09;98144.56;;;1.51;100.00
61757;BME280;57225;61.460;24.060;2023-01-13T00:09:54;98150.41;;;1.43;100.00
61757;BME280;57225;61.460;24.060;2023-01-13T00:12:39;98150.81;;;1.52;100.00
61757;BME280;57225;61.460;24.060;2023-01-13T00:15:24;98146.13;;;1.70;100.00
61757;BME280;57225;61.460;24.060;2023-01-13T00:18:08;98149.63;;;1.78;100.00
61757;BME280;57225;61.460;24.060;2023-01-13T00:21:00;98150.06;;;1.76;100.00
61757;BME280;57225;61.460;24.060;2023-01-13T00:23:46;98148.09;;;1.63;100.00
61757;BME280;57225;61.460;24.060;2023-01-13T00:26:30;98142.59;;;1.66;100.00
61757;BME280;57225;61.460;24.060;2023-01-13T00:29:18;98146.13;;;1.63;100.00
61757;BME280;57225;61.460;24.060;2023-01-13T00:32:03;98153.97;;;1.75;100.00
61757;BME280;57225;61.460;24.060;2023-01-13T00:34:47;98131.22;;;1.68;100.00
61757;BME280;57225;61.460;24.060;2023-01-13T00:37:34;98145.34;;;1.77;100.00
61757;BME280;57225;61.460;24.060;2023-01-13T00:40:19;98139.84;;;1.77;100.00
61757;BME280;57225;61.460;24.060;2023-01-13T00:43:03;98144.94;;;1.78;100.00
61757;BME280;57225;61.460;24.060;2023-01-13T00:46:07;98139.06;;;1.73;100.00
61757;BME280;57225;61.460;24.060;2023-01-13T00:48:52;98140.63;;;1.70;100.00
61757;BME280;57225;61.460;24.060;2023-01-13T00:51:37;98131.63;;;1.70;100.00
61757;BME280;57225;61.460;24.060;2023-01-13T00:54:21;98132.78;;;1.61;100.00
61757;BME280;57225;61.460;24.060;2023-01-13T00:57:06;98130.44;;;1.71;100.00
61757;BME280;57225;61.460;24.060;2023-01-13T00:59:50;98126.91;;;1.63;100.00
61757;BME280;57225;61.460;24.060;2023-01-13T01:02:34;98129.25;;;1.68;100.00
61757;BME280;57225;61.460;24.060;2023-01-13T01:05:19;98119.03;;;1.72;100.00
61757;BME280;57225;61.460;24.060;2023-01-13T01:08:04;98120.22;;;1.75;100.00
61757;BME280;57225;61.460;24.060;2023-01-13T01:10:48;98112.41;;;1.77;100.00
61757;BME280;57225;61.460;24.060;2023-01-13T01:13:33;98113.94;;;1.81;100.00
61757;BME280;57225;61.460;24.060;2023-01-13T01:16:20;98119.81;;;1.90;100.00
61757;BME280;57225;61.460;24.060;2023-01-13T01:19:05;98114.72;;;1.78;100.00
61757;BME280;57225;61.460;24.060;2023-01-13T01:21:50;98110.03;;;1.72;100.00
61757;BME280;57225;61.460;24.060;2023-01-13T01:24:35;98115.53;;;1.68;100.00
61757;BME280;57225;61.460;24.060;2023-01-13T01:27:20;98113.19;;;1.63;100.00
61757;BME280;57225;61.460;24.060;2023-01-13T01:30:05;98119.44;;;1.74;100.00
61757;BME280;57225;61.460;24.060;2023-01-13T01:32:49;98118.66;;;1.84;100.00
61757;BME280;57225;61.460;24.060;2023-01-13T01:35:38;98117.88;;;1.73;100.00
61757;BME280;57225;61.460;24.060;2023-01-13T01:38:23;98110.81;;;1.72;100.00
61757;BME280;57225;61.460;24.060;2023-01-13T01:41:16;98115.91;;;1.88;100.00
61757;BME280;57225;61.460;24.060;2023-01-13T01:44:06;98113.94;;;1.78;100.00
61757;BME280;57225;61.460;24.060;2023-01-13T01:46:52;98114.34;;;1.69;100.00
61757;BME280;57225;61.460;24.060;2023-01-13T01:49:37;98113.16;;;1.84;100.00
61757;BME280;57225;61.460;24.060;2023-01-13T01:52:27;98112.38;;;1.73;100.00
61757;BME280;57225;61.460;24.060;2023-01-13T01:55:19;98116.31;;;1.69;100.00
61757;BME280;57225;61.460;24.060;2023-01-13T02:00:52;98096.31;;;1.54;100.00
61757;BME280;57225;61.460;24.060;2023-01-13T02:03:38;98107.69;;;1.67;100.00
61757;BME280;57225;61.460;24.060;2023-01-13T02:06:26;98111.59;;;1.62;100.00
61757;BME280;57225;61.460;24.060;2023-01-13T02:09:11;98108.47;;;1.67;100.00
61757;BME280;57225;61.460;24.060;2023-01-13T02:11:56;98110.44;;;1.63;100.00
61757;BME280;57225;61.460;24.060;2023-01-13T02:15:04;98111.59;;;1.62;100.00
61757;BME280;57225;61.460;24.060;2023-01-13T02:18:06;98106.09;;;1.73;100.00
61757;BME280;57225;61.460;24.060;2023-01-13T02:21:02;98115.50;;;1.72;100.00
61757;BME280;57225;61.460;24.060;2023-01-13T02:27:51;98111.22;;;1.56;100.00
61757;BME280;57225;61.460;24.060;2023-01-13T02:30:46;98117.88;;;1.59;100.00
61757;BME280;57225;61.460;24.060;2023-01-13T02:34:05;98108.47;;;1.46;100.00
61757;BME280;57225;61.460;24.060;2023-01-13T02:36:58;98113.94;;;1.46;100.00
61757;BME280;57225;61.460;24.060;2023-01-13T02:40:00;98107.28;;;1.36;100.00
61757;BME280;57225;61.460;24.060;2023-01-13T02:43:13;98111.59;;;1.62;100.00
61757;BME280;57225;61.460;24.060;2023-01-13T02:46:25;98111.59;;;1.55;100.00
61757;BME280;57225;61.460;24.060;2023-01-13T02:49:18;98109.25;;;1.57;100.00
61757;BME280;57225;61.460;24.060;2023-01-13T02:52:09;98113.19;;;1.56;100.00
61757;BME280;57225;61.460;24.060;2023-01-13T02:54:57;98108.47;;;1.39;100.00
61757;BME280;57225;61.460;24.060;2023-01-13T02:57:43;98117.09;;;1.41;100.00
61757;BME280;57225;61.460;24.060;2023-01-13T03:00:28;98117.09;;;1.44;100.00
61757;BME280;57225;61.460;24.060;2023-01-13T03:03:13;98120.25;;;1.50;100.00
61757;BME280;57225;61.460;24.060;2023-01-13T03:06:20;98113.94;;;1.46;100.00
61757;BME280;57225;61.460;24.060;2023-01-13T03:09:32;98113.16;;;1.35;100.00
61757;BME280;57225;61.460;24.060;2023-01-13T03:12:31;98126.50;;;1.36;100.00
61757;BME280;57225;61.460;24.060;2023-01-13T03:18:34;98121.00;;;1.40;100.00
61757;BME280;57225;61.460;24.060;2023-01-13T03:21:28;98118.66;;;1.42;100.00
61757;BME280;57225;61.460;24.060;2023-01-13T03:24:36;98126.88;;;1.35;100.00
61757;BME280;57225;61.460;24.060;2023-01-13T03:27:45;98128.44;;;1.36;100.00
61757;BME280;57225;61.460;24.060;2023-01-13T03:30:50;98127.28;;;1.37;100.00
61757;BME280;57225;61.460;24.060;2023-01-13T03:33:41;98120.22;;;1.29;100.00
61757;BME280;57225;61.460;24.060;2023-01-13T03:36:29;98131.63;;;1.45;100.00
61757;BME280;57225;61.460;24.060;2023-01-13T03:39:20;98117.06;;;1.23;100.00
61757;BME280;57225;61.460;24.060;2023-01-13T03:42:17;98126.09;;;1.27;100.00
61757;BME280;57225;61.460;24.060;2023-01-13T03:45:14;98145.28;;;1.16;100.00
61757;BME280;57225;61.460;24.060;2023-01-13T03:48:04;98141.72;;;1.05;100.00
61757;BME280;57225;61.460;24.060;2023-01-13T03:50:52;98156.25;;;1.16;100.00
61757;BME280;57225;61.460;24.060;2023-01-13T03:53:42;98145.69;;;1.18;100.00
61757;BME280;57225;61.460;24.060;2023-01-13T03:56:42;98144.50;;;1.27;100.00
61757;BME280;57225;61.460;24.060;2023-01-13T03:59:33;98143.31;;;1.06;100.00
61757;BME280;57225;61.460;24.060;2023-01-13T04:02:42;98147.63;;;1.14;100.00
61757;BME280;57225;61.460;24.060;2023-01-13T04:05:29;98148.03;;;1.16;100.00
61757;BME280;57225;61.460;24.060;2023-01-13T04:08:24;98162.53;;;1.13;100.00
61757;BME280;57225;61.460;24.060;2023-01-13T04:11:18;98162.13;;;1.11;100.00
61757;BME280;57225;61.460;24.060;2023-01-13T04:14:09;98174.63;;;1.09;100.00
61757;BME280;57225;61.460;24.060;2023-01-13T04:16:56;98166.81;;;1.14;100.00
61757;BME280;57225;61.460;24.060;2023-01-13T04:19:40;98170.75;;;1.17;100.00
61757;BME280;57225;61.460;24.060;2023-01-13T04:22:25;98166.41;;;1.05;100.00
61757;BME280;57225;61.460;24.060;2023-01-13T04:25:10;98178.16;;;1.02;100.00
61757;BME280;57225;61.460;24.060;2023-01-13T04:27:54;98180.91;;;1.06;100.00
61757;BME280;57225;61.460;24.060;2023-01-13T04:30:40;98184.84;;;1.12;100.00
61757;BME280;57225;61.460;24.060;2023-01-13T04:33:24;98188.38;;;1.12;100.00
61757;BME280;57225;61.460;24.060;2023-01-13T04:36:09;98187.63;;;1.23;100.00
61757;BME280;57225;61.460;24.060;2023-01-13T04:38:54;98185.22;;;1.10;100.00
61757;BME280;57225;61.460;24.060;2023-01-13T04:41:38;98200.13;;;1.06;100.00
61757;BME280;57225;61.460;24.060;2023-01-13T04:44:41;98194.22;;;1.04;100.00
61757;BME280;57225;61.460;24.060;2023-01-13T04:47:25;98212.63;;;1.00;100.00
61757;BME280;57225;61.460;24.060;2023-01-13T04:50:10;98203.19;;;0.90;100.00
61757;BME280;57225;61.460;24.060;2023-01-13T04:52:55;98207.94;;;1.00;100.00
61757;BME280;57225;61.460;24.060;2023-01-13T04:55:40;98216.56;;;1.06;100.00
61757;BME280;57225;61.460;24.060;2023-01-13T04:58:24;98214.22;;;1.08;100.00
61757;BME280;57225;61.460;24.060;2023-01-13T05:01:08;98225.56;;;1.03;100.00
61757;BME280;57225;61.460;24.060;2023-01-13T05:03:52;98233.41;;;1.08;100.00
61757;BME280;57225;61.460;24.060;2023-01-13T05:06:37;98228.78;;;1.19;100.00
61757;BME280;57225;61.460;24.060;2023-01-13T05:09:21;98229.91;;;1.07;100.00
61757;BME280;57225;61.460;24.060;2023-01-13T05:12:08;98246.41;;;1.21;100.00
61757;BME280;57225;61.460;24.060;2023-01-13T05:15:12;98243.22;;;1.05;100.00
61757;BME280;57225;61.460;24.060;2023-01-13T05:18:16;98249.06;;;1.00;100.00
61757;BME280;57225;61.460;24.060;2023-01-13T05:21:02;98255.38;;;1.15;100.00
61757;BME280;57225;61.460;24.060;2023-01-13T05:23:46;98251.06;;;1.07;100.00
61757;BME280;57225;61.460;24.060;2023-01-13T05:26:49;98256.16;;;1.12;100.00
61757;BME280;57225;61.460;24.060;2023-01-13T05:29:34;98258.09;;;1.04;100.00
61757;BME280;57225;61.460;24.060;2023-01-13T05:32:19;98258.09;;;1.01;100.00
61757;BME280;57225;61.460;24.060;2023-01-13T05:35:04;98271.06;;;1.11;100.00
61757;BME280;57225;61.460;24.060;2023-01-13T05:37:48;98277.28;;;1.04;100.00
61757;BME280;57225;61.460;24.060;2023-01-13T05:40:33;98281.53;;;0.91;100.00
61757;BME280;57225;61.460;24.060;2023-01-13T05:43:36;98289.34;;;0.89;100.00
61757;BME280;57225;61.460;24.060;2023-01-13T05:46:20;98294.06;;;0.92;100.00
61757;BME280;57225;61.460;24.060;2023-01-13T05:49:05;98298.78;;;0.95;100.00
61757;BME280;57225;61.460;24.060;2023-01-13T05:51:49;98301.13;;;0.93;100.00
61757;BME280;57225;61.460;24.060;2023-01-13T05:54:34;98303.06;;;0.89;100.00
61757;BME280;57225;61.460;24.060;2023-01-13T05:57:18;98297.16;;;0.80;100.00
61757;BME280;57225;61.460;24.060;2023-01-13T06:00:04;98298.72;;;0.81;100.00
61757;BME280;57225;61.460;24.060;2023-01-13T06:02:48;98300.69;;;0.80;100.00
61757;BME280;57225;61.460;24.060;2023-01-13T06:05:33;98303.38;;;0.77;100.00
61757;BME280;57225;61.460;24.060;2023-01-13T06:08:17;98306.53;;;0.75;100.00
61757;BME280;57225;61.460;24.060;2023-01-13T06:11:02;98316.28;;;0.73;100.00
61757;BME280;57225;61.460;24.060;2023-01-13T06:13:46;98306.53;;;0.79;100.00
61757;BME280;57225;61.460;24.060;2023-01-13T06:16:31;98310.38;;;0.71;100.00
61757;BME280;57225;61.460;24.060;2023-01-13T06:19:15;98307.28;;;0.76;100.00
61757;BME280;57225;61.460;24.060;2023-01-13T06:22:10;98310.44;;;0.78;100.00
61757;BME280;57225;61.460;24.060;2023-01-13T06:24:56;98310.84;;;0.80;100.00
61757;BME280;57225;61.460;24.060;2023-01-13T06:27:40;98314.28;;;0.66;100.00
61757;BME280;57225;61.460;24.060;2023-01-13T06:30:31;98313.44;;;0.59;100.00
61757;BME280;57225;61.460;24.060;2023-01-13T06:33:23;98319.69;;;0.56;100.00
61757;BME280;57225;61.460;24.060;2023-01-13T06:36:14;98330.34;;;0.68;100.00
61757;BME280;57225;61.460;24.060;2023-01-13T06:55:54;98340.06;;;0.58;100.00
61757;BME280;57225;61.460;24.060;2023-01-13T06:58:38;98342.00;;;0.58;100.00
61757;BME280;57225;61.460;24.060;2023-01-13T07:01:23;98333.00;;;0.54;100.00
61757;BME280;57225;61.460;24.060;2023-01-13T07:04:07;98341.94;;;0.51;100.00
61757;BME280;57225;61.460;24.060;2023-01-13T07:06:52;98352.22;;;0.61;100.00
61757;BME280;57225;61.460;24.060;2023-01-13T07:09:36;98361.59;;;0.56;100.00
61757;BME280;57225;61.460;24.060;2023-01-13T07:12:21;98362.78;;;0.59;100.00
61757;BME280;57225;61.460;24.060;2023-01-13T07:15:05;98363.59;;;0.63;100.00
61757;BME280;57225;61.460;24.060;2023-01-13T07:18:02;98375.31;;;0.60;100.00
61757;BME280;57225;61.460;24.060;2023-01-13T07:20:57;98366.69;;;0.58;100.00
61757;BME280;57225;61.460;24.060;2023-01-13T07:23:42;98369.81;;;0.56;100.00
61757;BME280;57225;61.460;24.060;2023-01-13T07:26:26;98372.16;;;0.54;100.00
61757;BME280;57225;61.460;24.060;2023-01-13T07:29:11;98385.06;;;0.54;100.00
61757;BME280;57225;61.460;24.060;2023-01-13T07:31:55;98382.31;;;0.50;100.00
61757;BME280;57225;61.460;24.060;2023-01-13T07:34:40;98390.91;;;0.52;100.00
61757;BME280;57225;61.460;24.060;2023-01-13T07:37:24;98407.34;;;0.52;100.00
61757;BME280;57225;61.460;24.060;2023-01-13T07:40:09;98409.69;;;0.50;100.00
61757;BME280;57225;61.460;24.060;2023-01-13T07:42:53;98416.72;;;0.48;100.00
61757;BME280;57225;61.460;24.060;2023-01-13T07:46:02;98433.97;;;0.52;100.00
61757;BME280;57225;61.460;24.060;2023-01-13T07:48:47;98444.19;;;0.55;100.00
61757;BME280;57225;61.460;24.060;2023-01-13T07:51:35;98439.22;;;0.71;100.00
61757;BME280;57225;61.460;24.060;2023-01-13T07:54:20;98460.81;;;0.76;100.00
61757;BME280;57225;61.460;24.060;2023-01-13T07:57:05;98450.19;;;0.71;100.00
61757;BME280;57225;61.460;24.060;2023-01-13T07:59:49;98456.97;;;0.84;100.00
61757;BME280;57225;61.460;24.060;2023-01-13T08:02:35;98459.63;;;0.73;100.00
61757;BME280;57225;61.460;24.060;2023-01-13T08:05:19;98461.72;;;0.87;100.00
61757;BME280;57225;61.460;24.060;2023-01-13T08:08:03;98459.25;;;0.75;100.00
61757;BME280;57225;61.460;24.060;2023-01-13T08:10:49;98472.97;;;0.75;100.00
61757;BME280;57225;61.460;24.060;2023-01-13T08:13:33;98469.44;;;0.78;100.00
61757;BME280;57225;61.460;24.060;2023-01-13T08:16:18;98470.97;;;0.72;100.00
61757;BME280;57225;61.460;24.060;2023-01-13T08:19:03;98467.50;;;0.78;100.00
61757;BME280;57225;61.460;24.060;2023-01-13T08:21:47;98482.78;;;0.79;100.00
61757;BME280;57225;61.460;24.060;2023-01-13T08:24:32;98474.88;;;0.71;100.00
61757;BME280;57225;61.460;24.060;2023-01-13T08:27:16;98482.41;;;0.81;100.00
61757;BME280;57225;61.460;24.060;2023-01-13T08:30:00;98491.16;;;0.94;100.00
61757;BME280;57225;61.460;24.060;2023-01-13T08:32:46;98491.44;;;0.85;100.00
61757;BME280;57225;61.460;24.060;2023-01-13T08:35:32;98506.31;;;0.84;100.00
61757;BME280;57225;61.460;24.060;2023-01-13T08:38:17;98509.13;;;0.91;100.00
61757;BME280;57225;61.460;24.060;2023-01-13T08:41:07;98507.97;;;0.92;100.00
61757;BME280;57225;61.460;24.060;2023-01-13T08:43:52;98511.50;;;0.93;100.00
61757;BME280;57225;61.460;24.060;2023-01-13T08:46:36;98502.50;;;0.96;100.00
61757;BME280;57225;61.460;24.060;2023-01-13T08:49:21;98505.97;;;0.89;100.00
61757;BME280;57225;61.460;24.060;2023-01-13T08:52:09;98507.56;;;0.90;100.00
61757;BME280;57225;61.460;24.060;2023-01-13T08:54:53;98508.31;;;0.87;100.00
61757;BME280;57225;61.460;24.060;2023-01-13T08:57:37;98511.81;;;0.84;100.00
61757;BME280;57225;61.460;24.060;2023-01-13T09:00:22;98520.03;;;0.84;100.00
61757;BME280;57225;61.460;24.060;2023-01-13T09:03:06;98503.19;;;0.82;100.00
61757;BME280;57225;61.460;24.060;2023-01-13T09:05:51;98525.22;;;0.93;100.00
61757;BME280;57225;61.460;24.060;2023-01-13T09:08:35;98523.34;;;1.04;100.00
61757;BME280;57225;61.460;24.060;2023-01-13T09:11:33;98507.97;;;0.92;100.00
61757;BME280;57225;61.460;24.060;2023-01-13T09:14:37;98540.53;;;0.97;100.00
61757;BME280;57225;61.460;24.060;2023-01-13T09:17:22;98547.53;;;0.91;100.00
61757;BME280;57225;61.460;24.060;2023-01-13T09:20:07;98543.84;;;1.13;100.00
61757;BME280;57225;61.460;24.060;2023-01-13T09:22:51;98543.34;;;1.04;100.00
61757;BME280;57225;61.460;24.060;2023-01-13T09:25:36;98538.56;;;0.94;100.00
61757;BME280;57225;61.460;24.060;2023-01-13T09:28:20;98537.06;;;1.00;100.00
61757;BME280;57225;61.460;24.060;2023-01-13T09:31:05;98526.81;;;0.94;100.00
61757;BME280;57225;61.460;24.060;2023-01-13T09:33:49;98536.22;;;0.96;100.00
61757;BME280;57225;61.460;24.060;2023-01-13T09:36:53;98538.66;;;1.05;100.00
61757;BME280;57225;61.460;24.060;2023-01-13T09:39:37;98541.75;;;1.03;100.00
61757;BME280;57225;61.460;24.060;2023-01-13T09:42:46;98545.81;;;1.16;100.00
61757;BME280;57225;61.460;24.060;2023-01-13T09:46:02;98542.63;;;1.14;100.00
61757;BME280;57225;61.460;24.060;2023-01-13T09:48:48;98542.63;;;1.14;100.00
61757;BME280;57225;61.460;24.060;2023-01-13T09:51:40;98541.81;;;1.07;100.00
61757;BME280;57225;61.460;24.060;2023-01-13T09:55:04;98548.84;;;1.08;100.00
61757;BME280;57225;61.460;24.060;2023-01-13T09:57:49;98544.25;;;1.19;100.00
61757;BME280;57225;61.460;24.060;2023-01-13T10:00:35;98547.84;;;1.27;100.00
61757;BME280;57225;61.460;24.060;2023-01-13T10:03:26;98534.09;;;1.19;100.00
61757;BME280;57225;61.460;24.060;2023-01-13T10:06:20;98534.13;;;1.27;100.00
61757;BME280;57225;61.460;24.060;2023-01-13T10:09:04;98548.66;;;1.31;100.00
61757;BME280;57225;61.460;24.060;2023-01-13T10:11:49;98557.94;;;1.15;100.00
61757;BME280;57225;61.460;24.060;2023-01-13T10:14:55;98570.56;;;1.27;100.00
61757;BME280;57225;61.460;24.060;2023-01-13T10:21:21;98555.97;;;1.16;100.00
61757;BME280;57225;61.460;24.060;2023-01-13T10:24:27;98559.59;;;1.24;100.00
61757;BME280;57225;61.460;24.060;2023-01-13T10:27:32;98572.44;;;1.12;100.00
61757;BME280;57225;61.460;24.060;2023-01-13T10:30:26;98569.34;;;1.21;100.00
61757;BME280;57225;61.460;24.060;2023-01-13T10:33:21;98561.53;;;1.19;100.00
61757;BME280;57225;61.460;24.060;2023-01-13T10:36:25;98567.75;;;1.16;100.00
61757;BME280;57225;61.460;24.060;2023-01-13T10:39:16;98561.91;;;1.21;100.00
61757;BME280;57225;61.460;24.060;2023-01-13T10:42:02;98563.19;;;1.31;100.00
61757;BME280;57225;61.460;24.060;2023-01-13T10:44:51;98565.06;;;1.24;100.00
61757;BME280;57225;61.460;24.060;2023-01-13T10:47:36;98561.22;;;1.32;100.00
61757;BME280;57225;61.460;24.060;2023-01-13T10:50:27;98559.34;;;1.43;100.00
61757;BME280;57225;61.460;24.060;2023-01-13T10:53:23;98562.50;;;1.45;100.00
61757;BME280;57225;61.460;24.060;2023-01-13T10:56:15;98565.25;;;1.45;100.00
61757;BME280;57225;61.460;24.060;2023-01-13T11:02:29;98563.78;;;1.58;100.00
61757;BME280;57225;61.460;24.060;2023-01-13T11:05:21;98549.59;;;1.49;100.00
61757;BME280;57225;61.460;24.060;2023-01-13T11:08:16;98560.19;;;1.50;100.00
61757;BME280;57225;61.460;24.060;2023-01-13T11:11:01;98557.53;;;1.61;100.00
61757;BME280;57225;61.460;24.060;2023-01-13T11:13:46;98544.16;;;1.56;100.00
61757;BME280;57225;61.460;24.060;2023-01-13T11:16:54;98557.47;;;1.54;100.00
61757;BME280;57225;61.460;24.060;2023-01-13T11:19:45;98552.44;;;1.63;100.00
61757;BME280;57225;61.460;24.060;2023-01-13T11:22:34;98558.25;;;1.54;100.00
61757;BME280;57225;61.460;24.060;2023-01-13T11:25:30;98546.16;;;1.63;100.00
61757;BME280;57225;61.460;24.060;2023-01-13T11:28:41;98549.28;;;1.61;100.00
61757;BME280;57225;61.460;24.060;2023-01-13T11:31:33;98556.72;;;1.57;100.00
61757;BME280;57225;61.460;24.060;2023-01-13T11:37:20;98557.81;;;1.49;100.00
61757;BME280;57225;61.460;24.060;2023-01-13T11:40:31;98558.19;;;1.47;100.00
61757;BME280;57225;61.460;24.060;2023-01-13T11:43:43;98560.88;;;1.37;100.00
61757;BME280;57225;61.460;24.060;2023-01-13T11:46:30;98571.84;;;1.37;100.00
61757;BME280;57225;61.460;24.060;2023-01-13T11:49:22;98568.69;;;1.35;100.00
61757;BME280;57225;61.460;24.060;2023-01-13T11:52:20;98564.78;;;1.36;100.00
61757;BME280;57225;61.460;24.060;2023-01-13T12:04:30;98563.84;;;1.17;100.00
61757;BME280;57225;61.460;24.060;2023-01-13T12:07:42;98552.88;;;1.17;100.00
61757;BME280;57225;61.460;24.060;2023-01-13T12:16:49;98559.88;;;1.15;100.00
61757;BME280;57225;61.460;24.060;2023-01-13T12:19:34;98555.13;;;1.08;100.00
61757;BME280;57225;61.460;24.060;2023-01-13T12:22:27;98549.63;;;1.08;100.00
61757;BME280;57225;61.460;24.060;2023-01-13T12:25:26;98551.09;;;0.95;100.00
61757;BME280;57225;61.460;24.060;2023-01-13T12:28:22;98538.06;;;0.85;100.00
61757;BME280;57225;61.460;24.060;2023-01-13T12:31:08;98540.09;;;0.92;100.00
61757;BME280;57225;61.460;24.060;2023-01-13T12:34:23;98537.84;;;1.01;100.00
61757;BME280;57225;61.460;24.060;2023-01-13T12:37:15;98546.44;;;0.99;100.00
61757;BME280;57225;61.460;24.060;2023-01-13T12:40:32;98541.25;;;0.91;100.00
61757;BME280;57225;61.460;24.060;2023-01-13T12:43:21;98547.19;;;0.96;100.00
61757;BME280;57225;61.460;24.060;2023-01-13T12:49:38;98543.75;;;1.06;100.00
61757;BME280;57225;61.460;24.060;2023-01-13T12:52:23;98545.34;;;1.07;100.00
61757;BME280;57225;61.460;24.060;2023-01-13T12:55:12;98527.63;;;1.01;100.00
61757;BME280;57225;61.460;24.060;2023-01-13T12:58:16;98537.78;;;0.97;100.00
61757;BME280;57225;61.460;24.060;2023-01-13T13:01:13;98546.06;;;1.01;100.00
61757;BME280;57225;61.460;24.060;2023-01-13T13:04:07;98547.25;;;1.03;100.00
61757;BME280;57225;61.460;24.060;2023-01-13T13:07:03;98545.72;;;1.09;100.00
61757;BME280;57225;61.460;24.060;2023-01-13T13:12:58;98544.06;;;0.94;100.00
61757;BME280;57225;61.460;24.060;2023-01-13T13:27:48;98546.50;;;1.06;100.00
61757;BME280;57225;61.460;24.060;2023-01-13T13:30:36;98538.00;;;1.18;100.00
61757;BME280;57225;61.460;24.060;2023-01-13T13:33:38;98540.31;;;1.16;100.00
61757;BME280;57225;61.460;24.060;2023-01-13T13:39:42;98538.22;;;0.99;100.00
61757;BME280;57225;61.460;24.060;2023-01-13T13:42:55;98534.69;;;0.99;100.00
61757;BME280;57225;61.460;24.060;2023-01-13T13:45:59;98536.19;;;0.93;100.00
61757;BME280;57225;61.460;24.060;2023-01-13T13:49:02;98535.47;;;0.99;100.00
61757;BME280;57225;61.460;24.060;2023-01-13T13:54:41;98532.94;;;0.84;100.00
61757;BME280;57225;61.460;24.060;2023-01-13T13:57:31;98526.03;;;0.97;100.00
61757;BME280;57225;61.460;24.060;2023-01-13T14:00:27;98516.56;;;0.87;100.00
61757;BME280;57225;61.460;24.060;2023-01-13T14:03:29;98512.97;;;0.83;100.00
61757;BME280;57225;61.460;24.060;2023-01-13T14:06:21;98510.22;;;0.79;100.00
61757;BME280;57225;61.460;24.060;2023-01-13T14:09:17;98514.56;;;0.84;100.00
61757;BME280;57225;61.460;24.060;2023-01-13T14:12:05;98500.84;;;0.84;100.00
61757;BME280;57225;61.460;24.060;2023-01-13T14:14:57;98507.50;;;0.83;100.00
61757;BME280;57225;61.460;24.060;2023-01-13T14:17:42;98500.50;;;0.89;100.00
61757;BME280;57225;61.460;24.060;2023-01-13T14:20:27;98485.09;;;0.74;100.00
61757;BME280;57225;61.460;24.060;2023-01-13T14:23:16;98512.69;;;0.95;100.00
61757;BME280;57225;61.460;24.060;2023-01-13T14:26:02;98507.28;;;1.02;100.00
61757;BME280;57225;61.460;24.060;2023-01-13T14:28:47;98512.47;;;1.14;100.00
61757;BME280;57225;61.460;24.060;2023-01-13T14:31:31;98511.34;;;1.19;100.00
61757;BME280;57225;61.460;24.060;2023-01-13T14:34:20;98505.13;;;1.26;100.00
61757;BME280;57225;61.460;24.060;2023-01-13T14:37:25;98506.25;;;1.21;100.00
61757;BME280;57225;61.460;24.060;2023-01-13T14:40:47;98491.28;;;1.11;100.00
61757;BME280;57225;61.460;24.060;2023-01-13T14:43:32;98486.19;;;1.10;100.00
61757;BME280;57225;61.460;24.060;2023-01-13T14:46:17;98474.84;;;1.11;100.00
61757;BME280;57225;61.460;24.060;2023-01-13T14:49:03;98478.38;;;1.15;100.00
61757;BME280;57225;61.460;24.060;2023-01-13T14:51:48;98473.63;;;1.09;100.00
61757;BME280;57225;61.460;24.060;2023-01-13T14:57:32;98466.59;;;1.11;100.00
61757;BME280;57225;61.460;24.060;2023-01-13T15:00:19;98465.00;;;1.07;100.00
61757;BME280;57225;61.460;24.060;2023-01-13T15:03:06;98459.09;;;1.05;100.00
61757;BME280;57225;61.460;24.060;2023-01-13T15:05:51;98457.56;;;1.07;100.00
61757;BME280;57225;61.460;24.060;2023-01-13T15:08:38;98460.75;;;1.16;100.00
61757;BME280;57225;61.460;24.060;2023-01-13T15:11:25;98456.78;;;1.10;100.00
61757;BME280;57225;61.460;24.060;2023-01-13T15:14:11;98451.69;;;1.09;100.00
61757;BME280;57225;61.460;24.060;2023-01-13T15:16:56;98448.09;;;1.01;100.00
61757;BME280;57225;61.460;24.060;2023-01-13T15:19:40;98451.25;;;1.03;100.00
61757;BME280;57225;61.460;24.060;2023-01-13T15:22:25;98439.88;;;1.01;100.00
61757;BME280;57225;61.460;24.060;2023-01-13T15:25:09;98444.19;;;1.02;100.00
61757;BME280;57225;61.460;24.060;2023-01-13T15:27:54;98442.22;;;0.99;100.00
61757;BME280;57225;61.460;24.060;2023-01-13T15:30:38;98436.00;;;1.06;100.00
61757;BME280;57225;61.460;24.060;2023-01-13T15:33:23;98436.72;;;0.99;100.00
61757;BME280;57225;61.460;24.060;2023-01-13T15:36:34;98430.03;;;0.97;100.00
61757;BME280;57225;61.460;24.060;2023-01-13T15:39:20;98424.56;;;0.97;100.00
61757;BME280;57225;61.460;24.060;2023-01-13T15:42:04;98421.84;;;1.00;100.00
61757;BME280;57225;61.460;24.060;2023-01-13T15:45:11;98406.88;;;0.87;100.00
61757;BME280;57225;61.460;24.060;2023-01-13T15:48:14;98411.53;;;0.83;100.00
61757;BME280;57225;61.460;24.060;2023-01-13T15:50:59;98415.47;;;0.89;100.00
61757;BME280;57225;61.460;24.060;2023-01-13T15:53:43;98407.75;;;1.02;100.00
61757;BME280;57225;61.460;24.060;2023-01-13T15:56:28;98407.66;;;0.91;100.00
61757;BME280;57225;61.460;24.060;2023-01-13T15:59:19;98412.38;;;0.91;100.00
61757;BME280;57225;61.460;24.060;2023-01-13T16:02:11;98402.91;;;0.81;100.00
61757;BME280;57225;61.460;24.060;2023-01-13T16:04:55;98403.28;;;0.83;100.00
61757;BME280;57225;61.460;24.060;2023-01-13T16:07:40;98387.13;;;0.67;100.00
61757;BME280;57225;61.460;24.060;2023-01-13T16:10:26;98391.03;;;0.66;100.00